Nbp Island — V2FH3 — position and weather

sailwx.info

Track history (hours):
 
Tides and Currents Weather Stations Pressure Air Temp Water Temp Dewpoint Dewpoint Depression Visibility Wind Speed Wind Dir Waves Ship Positions

Nbp Island

Last reported at 2014-Nov-13 01:18 UTC. Time now 2014-Nov-21 12:13 UTC.
Position N 40°58' E 028°55'.
Warning: this ship's position is 8 days out of date.

Length 107 m; draft 5.1 m.

Type: Cargo ship. MMSI: 305674000.

Date/timePositionNaut miles runAvg speedWind from/ knotsBaromVisibWave heightAir tempDewpointWater temp
2014-Nov-13 01:18N 40°58' E 028°55'0 0.0
2014-Nov-12 23:24N 40°58' E 028°55'0 0.1
2014-Nov-12 22:12N 40°58' E 028°55'0 0.0
2014-Nov-12 21:12N 40°58' E 028°55'0 0.1
2014-Nov-12 20:30N 40°58' E 028°55'0 0.0
2014-Nov-12 19:12N 40°58' E 028°55'0 0.0
2014-Nov-12 17:30N 40°58' E 028°55'0 0.0
2014-Nov-12 16:30N 40°58' E 028°55'0 0.0
2014-Nov-12 15:30N 40°58' E 028°55'0 0.0
2014-Nov-12 10:30N 40°58' E 028°55'0 0.0
2014-Nov-12 08:18N 40°58' E 028°55'0 0.0
2014-Nov-12 07:24N 40°58' E 028°55'0 0.0
2014-Nov-12 05:30N 40°58' E 028°55'0 0.0
2014-Nov-12 03:30N 40°58' E 028°55'0 0.0
2014-Nov-12 01:30N 40°58' E 028°55'0 0.0
2014-Nov-12 00:30N 40°58' E 028°55'0 0.0
2014-Nov-11 23:12N 40°58' E 028°55'0 0.0
2014-Nov-11 22:30N 40°58' E 028°55'0 0.0
2014-Nov-11 21:30N 40°58' E 028°55'0 0.0
2014-Nov-11 20:24N 40°58' E 028°55'0 0.0
2014-Nov-11 19:24N 40°58' E 028°55'2 2.4
2014-Nov-11 18:34N 40°56' E 028°57'9 8.5
2014-Nov-11 17:33N 40°48' E 028°58'1 1.3
2014-Nov-11 16:34N 40°49' E 028°57'1 0.5
2014-Nov-11 15:31N 40°49' E 028°57'0 0.2
2014-Nov-11 14:33N 40°49' E 028°57'0 0.2
2014-Nov-11 13:34N 40°49' E 028°57'0 0.4
2014-Nov-11 12:34N 40°48' E 028°57'0 0.4
2014-Nov-11 11:32N 40°48' E 028°57'1 0.6
2014-Nov-11 10:33N 40°47' E 028°57'1 0.6
2014-Nov-11 09:34N 40°47' E 028°57'1 0.7
2014-Nov-11 08:32N 40°47' E 028°58'1 0.7
2014-Nov-11 07:33N 40°47' E 028°59'1 0.8
2014-Nov-11 06:34N 40°47' E 029°00'3 3.0
2014-Nov-11 05:32N 40°50' E 029°01'1 0.8
2014-Nov-11 04:32N 40°49' E 029°01'0 0.5
2014-Nov-11 03:33N 40°49' E 029°01'3 3.0
2014-Nov-11 02:34N 40°47' E 028°58'0 0.4
2014-Nov-11 01:33N 40°47' E 028°57'0 0.2
2014-Nov-11 00:33N 40°47' E 028°58'0 0.3
2014-Nov-10 23:32N 40°48' E 028°57'0 0.4
2014-Nov-10 22:34N 40°48' E 028°57'6 5.4
2014-Nov-10 21:31N 40°54' E 028°56'4 1.3
2014-Nov-10 18:21N 40°57' E 028°54'0 0.0
2014-Nov-10 17:27N 40°57' E 028°54'0 0.0
2014-Nov-10 16:21N 40°57' E 028°54'0 0.1
2014-Nov-10 15:09N 40°57' E 028°54'0 0.0
2014-Nov-10 14:27N 40°57' E 028°54'0 0.0
2014-Nov-10 13:09N 40°57' E 028°54'0 0.0
2014-Nov-10 11:33N 40°57' E 028°54'0 0.0
2014-Nov-10 09:21N 40°57' E 028°54'0 0.0
2014-Nov-10 07:21N 40°57' E 028°54'0 0.0
2014-Nov-10 06:33N 40°57' E 028°54'0 0.0
2014-Nov-10 03:09N 40°57' E 028°54'0 0.1
2014-Nov-10 02:33N 40°57' E 028°54'0 0.1
2014-Nov-10 01:33N 40°57' E 028°54'0 0.0
2014-Nov-09 22:21N 40°57' E 028°54'0 0.0
2014-Nov-09 20:21N 40°57' E 028°54'0 0.0
2014-Nov-09 18:27N 40°57' E 028°54'0 0.0
2014-Nov-09 17:15N 40°57' E 028°54'0 0.1
2014-Nov-09 16:33N 40°57' E 028°54'0 0.0
2014-Nov-09 15:33N 40°57' E 028°54'0 0.1
2014-Nov-09 14:27N 40°57' E 028°54'0 0.1
2014-Nov-09 13:27N 40°57' E 028°54'0 0.0
2014-Nov-09 11:27N 40°57' E 028°54'0 0.0
2014-Nov-09 09:15N 40°57' E 028°54'0 0.1
2014-Nov-09 07:21N 40°57' E 028°54'0 0.0
2014-Nov-09 05:09N 40°57' E 028°54'0 0.0
2014-Nov-09 03:09N 40°57' E 028°54'0 0.1
2014-Nov-09 02:27N 40°57' E 028°54'3 3.1
2014-Nov-09 01:33N 40°55' E 028°56'10 9.7
2014-Nov-09 00:33N 40°49' E 029°06'1111.1
2014-Nov-08 23:33N 40°45' E 029°20'  
2014-Nov-06 09:33N 40°46' E 029°32'2 1.0
2014-Nov-06 07:24N 40°46' E 029°30'0 0.0
2014-Nov-06 05:18N 40°46' E 029°30'0 0.0
2014-Nov-05 09:30N 40°46' E 029°30'0 0.0
2014-Nov-05 06:24N 40°46' E 029°30'0 0.0
2014-Nov-05 04:30N 40°46' E 029°30'0 0.0
2014-Nov-05 03:24N 40°46' E 029°29'0 0.0
2014-Nov-04 22:27N 40°46' E 029°30'  
Track history (hours):
 
Tides and Currents Weather Stations Pressure Air Temp Water Temp Dewpoint Dewpoint Depression Visibility Wind Speed Wind Dir Waves Ship Positions

Nbp Island

Last reported at 2014-Nov-13 01:18 UTC. Time now 2014-Nov-21 12:13 UTC.
Position N 40°58' E 028°55'.
Warning: this ship's position is 8 days out of date.

Length 107 m; draft 5.1 m.

Type: Cargo ship. MMSI: 305674000.

Date/timePositionNaut miles runAvg speedWind from/ knotsBaromVisibWave heightAir tempDewpointWater temp
2014-Nov-13 01:18N 40°58' E 028°55'0 0.0
2014-Nov-12 23:24N 40°58' E 028°55'0 0.1
2014-Nov-12 22:12N 40°58' E 028°55'0 0.0
2014-Nov-12 21:12N 40°58' E 028°55'0 0.1
2014-Nov-12 20:30N 40°58' E 028°55'0 0.0
2014-Nov-12 19:12N 40°58' E 028°55'0 0.0
2014-Nov-12 17:30N 40°58' E 028°55'0 0.0
2014-Nov-12 16:30N 40°58' E 028°55'0 0.0
2014-Nov-12 15:30N 40°58' E 028°55'0 0.0
2014-Nov-12 10:30N 40°58' E 028°55'0 0.0
2014-Nov-12 08:18N 40°58' E 028°55'0 0.0
2014-Nov-12 07:24N 40°58' E 028°55'0 0.0
2014-Nov-12 05:30N 40°58' E 028°55'0 0.0
2014-Nov-12 03:30N 40°58' E 028°55'0 0.0
2014-Nov-12 01:30N 40°58' E 028°55'0 0.0
2014-Nov-12 00:30N 40°58' E 028°55'0 0.0
2014-Nov-11 23:12N 40°58' E 028°55'0 0.0
2014-Nov-11 22:30N 40°58' E 028°55'0 0.0
2014-Nov-11 21:30N 40°58' E 028°55'0 0.0
2014-Nov-11 20:24N 40°58' E 028°55'0 0.0
2014-Nov-11 19:24N 40°58' E 028°55'2 2.4
2014-Nov-11 18:34N 40°56' E 028°57'9 8.5
2014-Nov-11 17:33N 40°48' E 028°58'1 1.3
2014-Nov-11 16:34N 40°49' E 028°57'1 0.5
2014-Nov-11 15:31N 40°49' E 028°57'0 0.2
2014-Nov-11 14:33N 40°49' E 028°57'0 0.2
2014-Nov-11 13:34N 40°49' E 028°57'0 0.4
2014-Nov-11 12:34N 40°48' E 028°57'0 0.4
2014-Nov-11 11:32N 40°48' E 028°57'1 0.6
2014-Nov-11 10:33N 40°47' E 028°57'1 0.6
2014-Nov-11 09:34N 40°47' E 028°57'1 0.7
2014-Nov-11 08:32N 40°47' E 028°58'1 0.7
2014-Nov-11 07:33N 40°47' E 028°59'1 0.8
2014-Nov-11 06:34N 40°47' E 029°00'3 3.0
2014-Nov-11 05:32N 40°50' E 029°01'1 0.8
2014-Nov-11 04:32N 40°49' E 029°01'0 0.5
2014-Nov-11 03:33N 40°49' E 029°01'3 3.0
2014-Nov-11 02:34N 40°47' E 028°58'0 0.4
2014-Nov-11 01:33N 40°47' E 028°57'0 0.2
2014-Nov-11 00:33N 40°47' E 028°58'0 0.3
2014-Nov-10 23:32N 40°48' E 028°57'0 0.4
2014-Nov-10 22:34N 40°48' E 028°57'6 5.4
2014-Nov-10 21:31N 40°54' E 028°56'4 1.3
2014-Nov-10 18:21N 40°57' E 028°54'0 0.0
2014-Nov-10 17:27N 40°57' E 028°54'0 0.0
2014-Nov-10 16:21N 40°57' E 028°54'0 0.1
2014-Nov-10 15:09N 40°57' E 028°54'0 0.0
2014-Nov-10 14:27N 40°57' E 028°54'0 0.0
2014-Nov-10 13:09N 40°57' E 028°54'0 0.0
2014-Nov-10 11:33N 40°57' E 028°54'0 0.0
2014-Nov-10 09:21N 40°57' E 028°54'0 0.0
2014-Nov-10 07:21N 40°57' E 028°54'0 0.0
2014-Nov-10 06:33N 40°57' E 028°54'0 0.0
2014-Nov-10 03:09N 40°57' E 028°54'0 0.1
2014-Nov-10 02:33N 40°57' E 028°54'0 0.1
2014-Nov-10 01:33N 40°57' E 028°54'0 0.0
2014-Nov-09 22:21N 40°57' E 028°54'0 0.0
2014-Nov-09 20:21N 40°57' E 028°54'0 0.0
2014-Nov-09 18:27N 40°57' E 028°54'0 0.0
2014-Nov-09 17:15N 40°57' E 028°54'0 0.1
2014-Nov-09 16:33N 40°57' E 028°54'0 0.0
2014-Nov-09 15:33N 40°57' E 028°54'0 0.1
2014-Nov-09 14:27N 40°57' E 028°54'0 0.1
2014-Nov-09 13:27N 40°57' E 028°54'0 0.0
2014-Nov-09 11:27N 40°57' E 028°54'0 0.0
2014-Nov-09 09:15N 40°57' E 028°54'0 0.1
2014-Nov-09 07:21N 40°57' E 028°54'0 0.0
2014-Nov-09 05:09N 40°57' E 028°54'0 0.0
2014-Nov-09 03:09N 40°57' E 028°54'0 0.1
2014-Nov-09 02:27N 40°57' E 028°54'3 3.1
2014-Nov-09 01:33N 40°55' E 028°56'10 9.7
2014-Nov-09 00:33N 40°49' E 029°06'1111.1
2014-Nov-08 23:33N 40°45' E 029°20'  
2014-Nov-06 09:33N 40°46' E 029°32'2 1.0
2014-Nov-06 07:24N 40°46' E 029°30'0 0.0
2014-Nov-06 05:18N 40°46' E 029°30'0 0.0
2014-Nov-05 09:30N 40°46' E 029°30'0 0.0
2014-Nov-05 06:24N 40°46' E 029°30'0 0.0
2014-Nov-05 04:30N 40°46' E 029°30'0 0.0
2014-Nov-05 03:24N 40°46' E 029°29'0 0.0
2014-Nov-04 22:27N 40°46' E 029°30'  

Dump ship's entire track history